Nimbus Weather Services

Informe meteorológico para Carrasco, Uruguay. El informe se hizo hace 18 minutos, a las 08:00 UTC. El viento estaba en calma. La temperatura era 25 °C (77 °F), con un punto de rocío de 20 °C (68 °F). La sensación térmica era de 26 °C (79 °F). La presión atmosférica era 1004 hPa (29.65 inHg). Había una humedad relativa del 73.8%. Cielo: algunas nubes a una altitud de 1219 metros (4000 pies), nubes dispersas a una altitud de 2438 metros (8000 pies), y nubosidad discontinua a una altitud de 6096 metros (20000 pies). En aquel momento la visibilidad global era mayor de 10 kilómetros (6.2 millas).

La clave METAR es: SUMU 170800Z 00000KT 9999 FEW040 SCT080 BKN200 25/20 Q1004 TEMPO TSRA

Consulta realizada el Lunes 17 de Febrero de 2020 5:17. Tiempo usado para generar esta pagina:13,802 ms.